Time;durP1;ratioP1;P1;durP2;ratioP2;P2;SDS_P1;SDS_P2;PMS_P1;PMS_P2;Temp;Humidity;BMP_temperature;BMP_pressure;BME280_temperature;BME280_humidity;BME280_pressure;Samples;Min_cycle;Max_cycle;Signal;HPM_P1;HPM_P2
2020/12/01 00:00:04;;;;;;;14.70;5.57;;;;;;;;;;4998426;28;20058;-52
2020/12/01 00:02:30;;;;;;;18.95;6.13;;;;;;;;;;4996855;28;20041;-51
2020/12/01 00:04:56;;;;;;;15.68;5.05;;;;;;;;;;5001194;28;20045;-56
2020/12/01 00:07:22;;;;;;;12.70;5.32;;;;;;;;;;4991342;28;20043;-56
2020/12/01 00:09:48;;;;;;;13.55;5.68;;;;;;;;;;4981567;28;20067;-49
2020/12/01 00:12:14;;;;;;;13.13;5.22;;;;;;;;;;4982800;28;20042;-57
2020/12/01 00:14:40;;;;;;;14.55;6.05;;;;;;;;;;5000042;28;20060;-56
2020/12/01 00:17:07;;;;;;;13.57;5.35;;;;;;;;;;4997340;28;20058;-57
2020/12/01 00:19:33;;;;;;;12.90;5.38;;;;;;;;;;4999306;28;20112;-58
2020/12/01 00:21:59;;;;;;;14.50;5.53;;;;;;;;;;4997071;28;20046;-54
2020/12/01 00:24:25;;;;;;;12.07;5.03;;;;;;;;;;5000635;28;20360;-60
2020/12/01 00:26:51;;;;;;;11.57;5.32;;;;;;;;;;5001232;28;20030;-58
2020/12/01 00:29:17;;;;;;;16.25;5.88;;;;;;;;;;4996462;28;20082;-54
2020/12/01 00:31:44;;;;;;;16.13;5.75;;;;;;;;;;4999450;28;20052;-56
2020/12/01 00:34:11;;;;;;;13.52;5.18;;;;;;;;;;4985683;28;20046;-56
2020/12/01 00:36:37;;;;;;;13.32;5.40;;;;;;;;;;5000437;28;20050;-57
2020/12/01 00:39:04;;;;;;;14.63;5.75;;;;;;;;;;4996994;28;20105;-58
2020/12/01 00:41:31;;;;;;;13.68;5.82;;;;;;;;;;5001561;28;20034;-60
2020/12/01 00:43:57;;;;;;;13.88;5.45;;;;;;;;;;4996444;28;20042;-57
2020/12/01 00:46:23;;;;;;;12.90;5.10;;;;;;;;;;5001973;28;20042;-57
2020/12/01 00:48:49;;;;;;;11.00;4.97;;;;;;;;;;4989914;28;20109;-54
2020/12/01 00:51:18;;;;;;;12.18;4.25;;;;;;;;;;4980707;28;20074;-57
2020/12/01 00:53:44;;;;;;;14.18;4.20;;;;;;;;;;4980180;28;20057;-59
2020/12/01 00:56:10;;;;;;;10.98;3.67;;;;;;;;;;4980452;28;20043;-56
2020/12/01 00:58:37;;;;;;;11.13;2.95;;;;;;;;;;4979563;28;20050;-57
2020/12/01 01:01:06;;;;;;;8.50;2.30;;;;;;;;;;4981428;28;20071;-57
2020/12/01 01:03:32;;;;;;;15.73;1.77;;;;;;;;;;4978853;28;20046;-60
2020/12/01 01:05:58;;;;;;;9.63;1.25;;;;;;;;;;4999798;28;20059;-60
2020/12/01 01:08:25;;;;;;;10.52;1.88;;;;;;;;;;4999297;28;20042;-55
2020/12/01 01:10:53;;;;;;;5.38;1.33;;;;;;;;;;4981359;28;20055;-54
2020/12/01 01:13:19;;;;;;;12.85;1.20;;;;;;;;;;4979482;28;20047;-55
2020/12/01 01:15:45;;;;;;;11.48;1.05;;;;;;;;;;4993649;28;20034;-54
2020/12/01 01:18:11;;;;;;;7.43;0.93;;;;;;;;;;4999865;28;20053;-54
2020/12/01 01:20:37;;;;;;;7.00;0.75;;;;;;;;;;4983226;28;20050;-58
2020/12/01 01:23:03;;;;;;;9.65;0.88;;;;;;;;;;4979356;28;20068;-50
2020/12/01 01:25:30;;;;;;;4.82;0.88;;;;;;;;;;4988320;28;20054;-57
2020/12/01 01:27:56;;;;;;;11.25;0.80;;;;;;;;;;5001798;28;20232;-60
2020/12/01 01:30:24;;;;;;;8.43;0.88;;;;;;;;;;4998063;28;20110;-60
2020/12/01 01:32:51;;;;;;;15.35;1.13;;;;;;;;;;5002615;28;20038;-59
2020/12/01 01:35:17;;;;;;;4.53;0.73;;;;;;;;;;4997320;28;20046;-57
2020/12/01 01:37:43;;;;;;;10.48;0.90;;;;;;;;;;4983740;28;20075;-59
2020/12/01 01:40:15;;;;;;;6.20;0.80;;;;;;;;;;4978830;28;20116;-55
2020/12/01 01:42:43;;;;;;;6.65;0.70;;;;;;;;;;5015723;28;20034;-53
2020/12/01 01:45:10;;;;;;;8.37;1.07;;;;;;;;;;5019110;28;20077;-61
2020/12/01 01:47:36;;;;;;;6.10;0.75;;;;;;;;;;4981781;28;20063;-58
2020/12/01 01:50:04;;;;;;;5.15;1.17;;;;;;;;;;4984630;28;20035;-57
2020/12/01 01:52:32;;;;;;;9.85;1.27;;;;;;;;;;4997833;28;20042;-56
2020/12/01 01:55:03;;;;;;;8.02;1.10;;;;;;;;;;5003026;28;20087;-54
2020/12/01 01:57:30;;;;;;;7.28;1.42;;;;;;;;;;4998232;28;20049;-55
2020/12/01 01:59:58;;;;;;;11.77;1.30;;;;;;;;;;5002427;28;20062;-56
2020/12/01 02:02:24;;;;;;;2.47;0.90;;;;;;;;;;4986523;28;20128;-60
2020/12/01 02:04:50;;;;;;;3.38;0.93;;;;;;;;;;4981875;28;20136;-55
2020/12/01 02:07:17;;;;;;;14.63;1.10;;;;;;;;;;4989994;28;20054;-60
2020/12/01 02:09:47;;;;;;;10.82;1.13;;;;;;;;;;5001965;28;20042;-60
2020/12/01 02:12:14;;;;;;;7.30;0.88;;;;;;;;;;5000948;28;20109;-59
2020/12/01 02:14:43;;;;;;;7.50;0.90;;;;;;;;;;5002663;28;20054;-60
2020/12/01 02:17:16;;;;;;;9.00;1.23;;;;;;;;;;4992441;28;20045;-58
2020/12/01 02:19:42;;;;;;;15.00;1.17;;;;;;;;;;4982449;28;20066;-58
2020/12/01 02:22:11;;;;;;;11.90;1.02;;;;;;;;;;4984039;28;20046;-60
2020/12/01 02:24:37;;;;;;;19.30;1.17;;;;;;;;;;5002581;28;20042;-61
2020/12/01 02:27:04;;;;;;;13.00;1.67;;;;;;;;;;4995317;28;20066;-58
2020/12/01 02:29:32;;;;;;;6.50;0.80;;;;;;;;;;4985150;28;20046;-58
2020/12/01 02:31:58;;;;;;;17.85;1.10;;;;;;;;;;4981059;28;20051;-53
2020/12/01 02:34:30;;;;;;;11.73;1.10;;;;;;;;;;5001500;28;20068;-57
2020/12/01 02:36:56;;;;;;;5.13;0.95;;;;;;;;;;5002038;28;20075;-55
2020/12/01 02:39:22;;;;;;;6.00;0.60;;;;;;;;;;4980799;28;20098;-54
2020/12/01 02:41:50;;;;;;;9.82;1.05;;;;;;;;;;5003442;28;20097;-54
2020/12/01 02:44:17;;;;;;;8.00;0.90;;;;;;;;;;4987612;28;20055;-59
2020/12/01 02:46:43;;;;;;;8.95;1.00;;;;;;;;;;4983291;28;20042;-55
2020/12/01 02:49:12;;;;;;;8.15;1.00;;;;;;;;;;4981407;28;20054;-57
2020/12/01 02:51:38;;;;;;;6.30;1.10;;;;;;;;;;4983214;28;20063;-58
2020/12/01 02:54:04;;;;;;;8.18;1.20;;;;;;;;;;5007213;28;20038;-54
2020/12/01 02:56:30;;;;;;;11.02;1.08;;;;;;;;;;5002313;28;20038;-56
2020/12/01 02:58:56;;;;;;;11.63;0.80;;;;;;;;;;4991314;28;20047;-60
2020/12/01 03:01:23;;;;;;;10.25;0.75;;;;;;;;;;4991840;28;20050;-56
2020/12/01 03:03:49;;;;;;;5.95;0.77;;;;;;;;;;4997347;28;20124;-53
2020/12/01 03:06:16;;;;;;;8.88;1.00;;;;;;;;;;5002574;28;20041;-57
2020/12/01 03:08:42;;;;;;;8.00;1.05;;;;;;;;;;4996163;28;20042;-54
2020/12/01 03:11:09;;;;;;;11.60;0.75;;;;;;;;;;5001501;28;20095;-60
2020/12/01 03:13:36;;;;;;;5.00;1.05;;;;;;;;;;4998067;28;20034;-56
2020/12/01 03:16:05;;;;;;;6.03;0.57;;;;;;;;;;4999913;28;20052;-59
2020/12/01 03:18:32;;;;;;;10.27;1.00;;;;;;;;;;5001233;28;20042;-56
2020/12/01 03:20:58;;;;;;;6.68;1.00;;;;;;;;;;4981444;28;20098;-57
2020/12/01 03:23:24;;;;;;;10.63;0.95;;;;;;;;;;4982424;28;20149;-59
2020/12/01 03:25:50;;;;;;;11.23;0.85;;;;;;;;;;4980476;28;20074;-57
2020/12/01 03:28:17;;;;;;;11.27;1.02;;;;;;;;;;4981309;28;20074;-59
2020/12/01 03:30:43;;;;;;;8.02;0.88;;;;;;;;;;4991142;28;20046;-56
2020/12/01 03:33:09;;;;;;;11.43;0.85;;;;;;;;;;5001361;28;20038;-57
2020/12/01 03:35:36;;;;;;;10.60;0.80;;;;;;;;;;4996760;28;20054;-56
2020/12/01 03:38:02;;;;;;;10.52;0.85;;;;;;;;;;5002997;28;20113;-57
2020/12/01 03:40:29;;;;;;;8.65;0.85;;;;;;;;;;4991390;28;20054;-60
2020/12/01 03:42:55;;;;;;;13.10;1.00;;;;;;;;;;5019967;28;20046;-58
2020/12/01 03:45:21;;;;;;;6.00;0.55;;;;;;;;;;5013163;28;20045;-56
2020/12/01 03:47:47;;;;;;;7.40;0.98;;;;;;;;;;5000155;28;20243;-57
2020/12/01 03:50:14;;;;;;;4.70;0.77;;;;;;;;;;4999876;28;20035;-60
2020/12/01 03:52:41;;;;;;;7.35;0.60;;;;;;;;;;5001732;28;20074;-59
2020/12/01 03:55:07;;;;;;;6.43;0.88;;;;;;;;;;5003518;28;20042;-57
2020/12/01 03:57:40;;;;;;;14.90;1.42;;;;;;;;;;4998647;28;20082;-57
2020/12/01 04:00:07;;;;;;;10.52;0.70;;;;;;;;;;4999170;28;20035;-57
2020/12/01 04:02:33;;;;;;;12.23;1.05;;;;;;;;;;5002513;28;20123;-56
2020/12/01 04:05:00;;;;;;;8.63;0.75;;;;;;;;;;5004705;28;20056;-58
2020/12/01 04:07:26;;;;;;;13.98;1.00;;;;;;;;;;5002217;28;20042;-55
2020/12/01 04:09:53;;;;;;;12.65;0.98;;;;;;;;;;4984984;28;20058;-61
2020/12/01 04:12:19;;;;;;;13.65;1.00;;;;;;;;;;5009518;28;20177;-57
2020/12/01 04:14:45;;;;;;;4.05;0.68;;;;;;;;;;5003310;28;20049;-54
2020/12/01 04:17:11;;;;;;;6.53;0.82;;;;;;;;;;4999195;28;20123;-56
2020/12/01 04:19:37;;;;;;;13.10;0.88;;;;;;;;;;5003890;28;20057;-57
2020/12/01 04:22:05;;;;;;;10.90;0.98;;;;;;;;;;4999856;28;20037;-57
2020/12/01 04:24:33;;;;;;;5.75;0.80;;;;;;;;;;5002978;28;20064;-58
2020/12/01 04:27:00;;;;;;;3.85;0.63;;;;;;;;;;5012281;28;20038;-58
2020/12/01 04:29:26;;;;;;;9.40;0.80;;;;;;;;;;4984705;28;20041;-57
2020/12/01 04:31:53;;;;;;;5.68;0.82;;;;;;;;;;4984447;28;20038;-58
2020/12/01 04:34:19;;;;;;;6.13;0.82;;;;;;;;;;5020449;28;20049;-54
2020/12/01 04:36:45;;;;;;;6.80;0.65;;;;;;;;;;5020648;28;20046;-57
2020/12/01 04:39:11;;;;;;;14.07;1.00;;;;;;;;;;5002568;28;20099;-56
2020/12/01 04:41:37;;;;;;;3.15;0.70;;;;;;;;;;5004110;28;20081;-58
2020/12/01 04:44:05;;;;;;;12.65;0.82;;;;;;;;;;5002253;28;20050;-54
2020/12/01 04:46:33;;;;;;;10.47;0.90;;;;;;;;;;5020974;28;20042;-58
2020/12/01 04:49:01;;;;;;;4.95;0.63;;;;;;;;;;4999670;28;20297;-59
2020/12/01 04:51:35;;;;;;;5.83;0.63;;;;;;;;;;5004006;28;20077;-57
2020/12/01 04:54:20;;;;;;;8.85;0.77;;;;;;;;;;5003760;28;20042;-60
2020/12/01 04:56:58;;;;;;;11.65;1.00;;;;;;;;;;4984224;28;20050;-60
2020/12/01 04:59:48;;;;;;;6.50;0.73;;;;;;;;;;4983248;28;20120;-60
2020/12/01 05:02:28;;;;;;;8.02;1.17;;;;;;;;;;4983103;28;20049;-54
2020/12/01 05:05:02;;;;;;;6.45;1.08;;;;;;;;;;5038320;28;20061;-60
2020/12/01 05:07:41;;;;;;;5.00;0.80;;;;;;;;;;5037869;28;20149;-61
2020/12/01 05:10:11;;;;;;;5.90;0.75;;;;;;;;;;5019124;28;20110;-61
2020/12/01 05:12:38;;;;;;;11.02;0.73;;;;;;;;;;5004375;28;20045;-56
2020/12/01 05:15:12;;;;;;;8.40;1.05;;;;;;;;;;5002291;28;20048;-61
2020/12/01 05:18:05;;;;;;;3.17;0.65;;;;;;;;;;5005721;28;20046;-61
2020/12/01 05:20:32;;;;;;;9.52;0.65;;;;;;;;;;4980459;28;20054;-54
2020/12/01 05:23:00;;;;;;;4.60;0.85;;;;;;;;;;5039557;28;20120;-56
2020/12/01 05:25:27;;;;;;;7.45;0.68;;;;;;;;;;5023834;28;20122;-54
2020/12/01 05:28:02;;;;;;;5.32;0.68;;;;;;;;;;5005633;28;20052;-57
2020/12/01 05:30:28;;;;;;;5.57;0.88;;;;;;;;;;5006613;28;20053;-56
2020/12/01 05:32:57;;;;;;;6.60;0.80;;;;;;;;;;4988416;28;20046;-53
2020/12/01 05:35:23;;;;;;;;;;;;;;;;;;4997316;28;20046;-56
2020/12/01 05:37:54;;;;;;;6.15;0.80;;;;;;;;;;5004939;28;19953;-58
2020/12/01 05:40:20;;;;;;;6.45;0.90;;;;;;;;;;5002942;28;20041;-59
2020/12/01 05:42:46;;;;;;;3.92;0.73;;;;;;;;;;5007312;28;20054;-54
2020/12/01 05:45:17;;;;;;;8.90;1.20;;;;;;;;;;5002023;28;20045;-56
2020/12/01 05:47:46;;;;;;;6.05;0.90;;;;;;;;;;5005266;28;20070;-57
2020/12/01 05:50:20;;;;;;;6.30;0.98;;;;;;;;;;5019682;28;20149;-57
2020/12/01 05:52:51;;;;;;;5.70;1.00;;;;;;;;;;5006424;28;20101;-57
2020/12/01 05:55:23;;;;;;;9.63;0.88;;;;;;;;;;5001964;28;20054;-58
2020/12/01 05:57:56;;;;;;;4.95;1.20;;;;;;;;;;5005848;28;20041;-54
2020/12/01 06:00:25;;;;;;;6.80;1.52;;;;;;;;;;4999882;28;20056;-57
2020/12/01 06:02:57;;;;;;;7.40;1.10;;;;;;;;;;4982591;28;20031;-55
2020/12/01 06:05:24;;;;;;;9.57;1.65;;;;;;;;;;4979380;28;20050;-58
2020/12/01 06:07:51;;;;;;;15.85;1.83;;;;;;;;;;4981569;28;20035;-57
2020/12/01 06:10:24;;;;;;;8.25;1.65;;;;;;;;;;4993309;28;20049;-60
2020/12/01 06:13:10;;;;;;;2.72;1.25;;;;;;;;;;4978397;28;20052;-60
2020/12/01 06:15:40;;;;;;;3.88;1.25;;;;;;;;;;4997156;28;20049;-61
2020/12/01 06:18:12;;;;;;;7.07;2.05;;;;;;;;;;5018052;28;20131;-56
2020/12/01 06:20:40;;;;;;;7.15;1.75;;;;;;;;;;5000548;28;20038;-56
2020/12/01 06:23:31;;;;;;;3.88;1.48;;;;;;;;;;4997112;28;20074;-57
2020/12/01 06:26:14;;;;;;;6.25;1.95;;;;;;;;;;5002070;28;20034;-58
2020/12/01 06:29:03;;;;;;;6.90;1.50;;;;;;;;;;4984909;28;20083;-58
2020/12/01 06:31:35;;;;;;;7.88;1.40;;;;;;;;;;4981882;28;20042;-57
2020/12/01 06:34:19;;;;;;;3.50;1.40;;;;;;;;;;4982101;28;20062;-56
2020/12/01 06:36:59;;;;;;;4.72;1.35;;;;;;;;;;4980962;28;20062;-59
2020/12/01 06:39:28;;;;;;;6.28;1.40;;;;;;;;;;4981131;28;20050;-58
2020/12/01 06:42:00;;;;;;;5.65;1.63;;;;;;;;;;4988545;28;20428;-57
2020/12/01 06:44:27;;;;;;;4.57;1.38;;;;;;;;;;4999271;28;20046;-57
2020/12/01 06:46:54;;;;;;;5.55;1.30;;;;;;;;;;5013602;28;20042;-54
2020/12/01 06:49:22;;;;;;;6.95;1.30;;;;;;;;;;4961384;28;20051;-54
2020/12/01 06:51:50;;;;;;;7.60;1.70;;;;;;;;;;4963509;28;20163;-59
2020/12/01 06:54:16;;;;;;;8.82;1.80;;;;;;;;;;4958970;28;20306;-54
2020/12/01 06:56:53;;;;;;;4.93;1.58;;;;;;;;;;4962913;28;20058;-58
2020/12/01 06:59:20;;;;;;;18.10;3.42;;;;;;;;;;4960930;28;20046;-55
2020/12/01 07:01:49;;;;;;;7.57;1.52;;;;;;;;;;4964965;28;20122;-53
2020/12/01 07:04:21;;;;;;;6.70;1.65;;;;;;;;;;4968868;28;20047;-55
2020/12/01 07:06:48;;;;;;;9.60;1.13;;;;;;;;;;4987308;28;20057;-58
2020/12/01 07:09:16;;;;;;;4.03;1.33;;;;;;;;;;4996660;28;20049;-57
2020/12/01 07:11:53;;;;;;;3.00;0.77;;;;;;;;;;5001825;28;20062;-56
2020/12/01 07:14:22;;;;;;;7.85;1.30;;;;;;;;;;4996422;28;20077;-58
2020/12/01 07:16:49;;;;;;;7.68;1.50;;;;;;;;;;4993385;28;20035;-55
2020/12/01 07:19:17;;;;;;;9.13;1.23;;;;;;;;;;4993026;28;20141;-57
2020/12/01 07:21:48;;;;;;;5.10;1.20;;;;;;;;;;4997748;28;20047;-58
2020/12/01 07:24:19;;;;;;;4.93;0.85;;;;;;;;;;4977358;28;20043;-55
2020/12/01 07:26:49;;;;;;;1.70;0.68;;;;;;;;;;4996865;28;20038;-57
2020/12/01 07:29:29;;;;;;;4.97;0.88;;;;;;;;;;5003070;28;20026;-60
2020/12/01 07:32:04;;;;;;;6.60;1.30;;;;;;;;;;5007705;28;20052;-58
2020/12/01 07:34:32;;;;;;;9.30;1.20;;;;;;;;;;4998713;28;20050;-60
2020/12/01 07:37:15;;;;;;;3.40;0.98;;;;;;;;;;5005800;28;20119;-61
2020/12/01 07:39:49;;;;;;;5.13;0.95;;;;;;;;;;5007975;28;20070;-56
2020/12/01 07:42:20;;;;;;;4.72;0.88;;;;;;;;;;4983894;28;20039;-60
2020/12/01 07:44:47;;;;;;;2.53;0.95;;;;;;;;;;4993801;28;20038;-56
2020/12/01 07:47:15;;;;;;;5.75;1.55;;;;;;;;;;5014095;28;20042;-58
2020/12/01 07:49:41;;;;;;;4.05;0.88;;;;;;;;;;5000239;28;20037;-58
2020/12/01 07:52:15;;;;;;;3.65;0.68;;;;;;;;;;5002944;28;20046;-57
2020/12/01 07:54:43;;;;;;;16.60;1.80;;;;;;;;;;4993877;28;20027;-57
2020/12/01 07:57:12;;;;;;;10.77;2.00;;;;;;;;;;4981019;28;20050;-57
2020/12/01 07:59:43;;;;;;;7.97;1.50;;;;;;;;;;4979679;28;20102;-59
2020/12/01 08:02:09;;;;;;;2.97;0.65;;;;;;;;;;4960660;28;20047;-54
2020/12/01 08:04:35;;;;;;;11.23;0.95;;;;;;;;;;4964111;28;20042;-56
2020/12/01 08:07:02;;;;;;;11.98;1.20;;;;;;;;;;4982863;28;20046;-58
2020/12/01 08:09:29;;;;;;;17.13;1.35;;;;;;;;;;5022084;28;20119;-57
2020/12/01 08:11:59;;;;;;;10.07;1.15;;;;;;;;;;5005163;28;20069;-58
2020/12/01 08:14:25;;;;;;;16.15;1.80;;;;;;;;;;5018925;28;20099;-55
2020/12/01 08:16:59;;;;;;;8.77;1.08;;;;;;;;;;4988388;28;20046;-59
2020/12/01 08:19:27;;;;;;;14.43;1.83;;;;;;;;;;4984727;28;20046;-57
2020/12/01 08:21:53;;;;;;;7.50;1.30;;;;;;;;;;4985952;28;20053;-57
2020/12/01 08:24:22;;;;;;;9.32;1.40;;;;;;;;;;5002184;28;20053;-58
2020/12/01 08:26:58;;;;;;;16.55;1.45;;;;;;;;;;5000621;28;20053;-58
2020/12/01 08:29:26;;;;;;;12.27;1.45;;;;;;;;;;5001417;28;20058;-62
2020/12/01 08:31:57;;;;;;;25.80;1.80;;;;;;;;;;5004195;28;20049;-58
2020/12/01 08:34:34;;;;;;;14.13;1.52;;;;;;;;;;5038044;28;20053;-58
2020/12/01 08:37:06;;;;;;;13.65;1.55;;;;;;;;;;5018268;28;20048;-59
2020/12/01 08:39:50;;;;;;;11.90;1.65;;;;;;;;;;5023476;28;20123;-58
2020/12/01 08:42:32;;;;;;;17.45;1.38;;;;;;;;;;5014970;28;20040;-55
2020/12/01 08:45:03;;;;;;;16.25;1.85;;;;;;;;;;5023162;28;20044;-57
2020/12/01 08:47:30;;;;;;;21.20;2.08;;;;;;;;;;5037320;28;20048;-61
2020/12/01 08:49:57;;;;;;;21.77;1.60;;;;;;;;;;5023438;28;20069;-62
2020/12/01 08:52:25;;;;;;;17.83;1.85;;;;;;;;;;5019416;28;20119;-61
2020/12/01 08:54:53;;;;;;;15.45;1.45;;;;;;;;;;5023687;28;20057;-58
2020/12/01 08:57:23;;;;;;;9.18;1.50;;;;;;;;;;5032617;28;20073;-59
2020/12/01 08:59:53;;;;;;;31.63;2.22;;;;;;;;;;5001010;28;20034;-60
2020/12/01 09:02:19;;;;;;;14.38;1.38;;;;;;;;;;4999694;28;20046;-56
2020/12/01 09:04:58;;;;;;;19.95;1.63;;;;;;;;;;5021779;28;20120;-58
2020/12/01 09:07:28;;;;;;;22.65;1.60;;;;;;;;;;5027104;28;20029;-58
2020/12/01 09:10:07;;;;;;;14.93;1.30;;;;;;;;;;5022414;28;20123;-57
2020/12/01 09:12:37;;;;;;;18.65;1.77;;;;;;;;;;5036098;28;20030;-58
2020/12/01 09:15:17;;;;;;;25.52;1.60;;;;;;;;;;5002836;28;20086;-58
2020/12/01 09:17:51;;;;;;;15.50;1.42;;;;;;;;;;5000893;28;20030;-58
2020/12/01 09:23:22;;;;;;;13.15;1.45;;;;;;;;;;4947479;28;20082;-55
2020/12/01 09:25:49;;;;;;;10.63;1.20;;;;;;;;;;5009069;28;20052;-60
2020/12/01 09:28:17;;;;;;;15.30;2.40;;;;;;;;;;5016537;28;20100;-58
2020/12/01 09:30:43;;;;;;;26.15;2.15;;;;;;;;;;4995829;28;20066;-59
2020/12/01 09:33:12;;;;;;;12.68;1.63;;;;;;;;;;5001899;28;20054;-61
2020/12/01 09:35:38;;;;;;;16.25;1.40;;;;;;;;;;5018390;28;20061;-60
2020/12/01 09:38:05;;;;;;;14.88;1.20;;;;;;;;;;5022230;28;20038;-57
2020/12/01 09:40:34;;;;;;;13.48;1.67;;;;;;;;;;5002277;28;20042;-55
2020/12/01 09:43:05;;;;;;;;;;;;;;;;;;5002561;28;20070;-61
2020/12/01 09:45:33;;;;;;;26.75;2.03;;;;;;;;;;5017488;28;19936;-62
2020/12/01 09:48:03;;;;;;;11.57;1.40;;;;;;;;;;5018237;28;20045;-61
2020/12/01 09:50:31;;;;;;;18.75;1.50;;;;;;;;;;4998499;28;20038;-58
2020/12/01 09:58:43;;;;;;;19.42;1.83;;;;;;;;;;4989273;28;20053;-56
2020/12/01 10:09:38;;;;;;;13.85;1.65;;;;;;;;;;5000618;28;20312;-54
2020/12/01 10:12:28;;;;;;;7.88;0.98;;;;;;;;;;4998797;28;20050;-60
2020/12/01 10:26:45;;;;;;;4.63;0.85;;;;;;;;;;5003332;28;20156;-57
2020/12/01 10:34:47;;;;;;;13.60;1.20;;;;;;;;;;5019488;28;20040;-54
2020/12/01 10:37:14;;;;;;;12.63;1.27;;;;;;;;;;5023039;28;20077;-55
2020/12/01 10:39:40;;;;;;;19.48;1.48;;;;;;;;;;5002159;28;20046;-57
2020/12/01 10:42:10;;;;;;;23.52;2.53;;;;;;;;;;5007717;28;20041;-58
2020/12/01 10:44:40;;;;;;;26.45;2.13;;;;;;;;;;5021119;28;20042;-57
2020/12/01 10:47:06;;;;;;;29.40;2.10;;;;;;;;;;5018306;28;20034;-58
2020/12/01 10:49:32;;;;;;;19.65;1.77;;;;;;;;;;5022521;28;20105;-60
2020/12/01 10:51:59;;;;;;;13.00;1.15;;;;;;;;;;5014769;28;20030;-57
2020/12/01 10:54:25;;;;;;;19.20;1.48;;;;;;;;;;5001698;28;20046;-58
2020/12/01 10:56:51;;;;;;;26.45;2.28;;;;;;;;;;4997462;28;20398;-59
2020/12/01 10:59:17;;;;;;;20.17;1.58;;;;;;;;;;5002342;28;20053;-57
2020/12/01 11:01:45;;;;;;;16.83;1.13;;;;;;;;;;5002279;28;20149;-59
2020/12/01 11:04:11;;;;;;;16.30;1.27;;;;;;;;;;5008162;28;20042;-58
2020/12/01 11:06:37;;;;;;;16.23;1.63;;;;;;;;;;5021601;28;20046;-60
2020/12/01 11:09:03;;;;;;;23.38;1.60;;;;;;;;;;5002885;28;20053;-60
2020/12/01 11:11:30;;;;;;;15.75;1.27;;;;;;;;;;5021558;28;20052;-56
2020/12/01 11:13:56;;;;;;;20.23;1.45;;;;;;;;;;5001311;28;20104;-58
2020/12/01 11:16:21;;;;;;;24.67;2.08;;;;;;;;;;5000439;28;20042;-55
2020/12/01 11:18:48;;;;;;;15.82;1.27;;;;;;;;;;5011109;28;20045;-57
2020/12/01 11:21:23;;;;;;;8.45;1.17;;;;;;;;;;5022997;28;20034;-60
2020/12/01 11:23:51;;;;;;;14.38;1.23;;;;;;;;;;5021275;28;20088;-59
2020/12/01 11:26:20;;;;;;;17.10;2.10;;;;;;;;;;5022735;28;20052;-55
2020/12/01 11:28:46;;;;;;;;;;;;;;;;;;5034925;28;20168;-60
2020/12/01 11:31:12;;;;;;;13.07;1.40;;;;;;;;;;5018794;28;19926;-58
2020/12/01 11:33:39;;;;;;;16.02;1.83;;;;;;;;;;5016364;28;20069;-58
2020/12/01 11:36:06;;;;;;;22.50;1.67;;;;;;;;;;5021505;28;20058;-60
2020/12/01 11:38:32;;;;;;;19.23;1.38;;;;;;;;;;5031750;28;20046;-57
2020/12/01 11:40:58;;;;;;;24.88;2.75;;;;;;;;;;4999461;28;20052;-58
2020/12/01 11:43:24;;;;;;;13.25;1.52;;;;;;;;;;4995157;28;20042;-61
2020/12/01 11:45:50;;;;;;;10.75;1.08;;;;;;;;;;5018416;28;20061;-57
2020/12/01 11:48:16;;;;;;;13.60;1.42;;;;;;;;;;5037568;28;20094;-61
2020/12/01 11:50:43;;;;;;;28.10;1.80;;;;;;;;;;5017589;28;20042;-58
2020/12/01 11:53:10;;;;;;;9.27;1.20;;;;;;;;;;4999934;28;20054;-57
2020/12/01 11:55:36;;;;;;;16.15;1.17;;;;;;;;;;4997861;28;20042;-57
2020/12/01 11:58:02;;;;;;;14.70;1.65;;;;;;;;;;5000881;28;20049;-58
2020/12/01 12:00:29;;;;;;;20.80;1.92;;;;;;;;;;4997753;28;20038;-56
2020/12/01 12:02:55;;;;;;;16.40;1.27;;;;;;;;;;5000332;28;20113;-59
2020/12/01 12:05:21;;;;;;;24.27;1.52;;;;;;;;;;4997571;28;20047;-60
2020/12/01 12:07:47;;;;;;;13.52;1.40;;;;;;;;;;5000718;28;20038;-58
2020/12/01 12:10:14;;;;;;;18.50;1.58;;;;;;;;;;5008665;28;20046;-60
2020/12/01 12:12:40;;;;;;;12.43;1.65;;;;;;;;;;5020724;28;20048;-61
2020/12/01 12:15:06;;;;;;;22.40;1.58;;;;;;;;;;5014784;28;20069;-61
2020/12/01 12:17:32;;;;;;;8.10;1.23;;;;;;;;;;5000542;28;20041;-61
2020/12/01 12:19:58;;;;;;;25.77;1.70;;;;;;;;;;4999911;28;20053;-59
2020/12/01 12:22:24;;;;;;;24.70;1.88;;;;;;;;;;5037930;28;20096;-59
2020/12/01 12:24:50;;;;;;;18.92;1.13;;;;;;;;;;5020017;28;20038;-57
2020/12/01 12:27:17;;;;;;;25.33;1.88;;;;;;;;;;5017533;28;20038;-56
2020/12/01 12:29:43;;;;;;;15.70;1.70;;;;;;;;;;4995681;28;20037;-58
2020/12/01 12:32:10;;;;;;;18.08;1.38;;;;;;;;;;5013773;28;20156;-61
2020/12/01 12:34:36;;;;;;;18.83;1.70;;;;;;;;;;5021893;28;20048;-60
2020/12/01 12:37:02;;;;;;;19.02;1.65;;;;;;;;;;5015549;28;20042;-57
2020/12/01 12:39:28;;;;;;;20.13;1.27;;;;;;;;;;5021645;28;20093;-57
2020/12/01 12:41:55;;;;;;;25.15;1.58;;;;;;;;;;5023911;28;20048;-55
2020/12/01 12:44:22;;;;;;;24.27;1.92;;;;;;;;;;5001538;28;20074;-60
2020/12/01 12:46:48;;;;;;;18.65;1.67;;;;;;;;;;4989642;28;20059;-57
2020/12/01 12:49:15;;;;;;;24.33;1.80;;;;;;;;;;5006050;28;20053;-59
2020/12/01 12:51:43;;;;;;;15.88;1.63;;;;;;;;;;4997689;28;20034;-59
2020/12/01 12:54:09;;;;;;;15.40;1.58;;;;;;;;;;5002262;28;20128;-58
2020/12/01 12:56:38;;;;;;;22.48;1.80;;;;;;;;;;5000444;28;20050;-60
2020/12/01 12:59:18;;;;;;;15.57;1.48;;;;;;;;;;5009372;28;20053;-59
2020/12/01 13:01:50;;;;;;;15.60;1.67;;;;;;;;;;4981259;28;20042;-58
2020/12/01 13:04:17;;;;;;;9.48;0.70;;;;;;;;;;5009042;28;20029;-54
2020/12/01 13:06:43;;;;;;;22.83;1.63;;;;;;;;;;5015844;28;20045;-60
2020/12/01 13:09:09;;;;;;;17.95;1.35;;;;;;;;;;4995100;28;20033;-58
2020/12/01 13:11:38;;;;;;;23.95;2.13;;;;;;;;;;5002879;28;20052;-56
2020/12/01 13:14:04;;;;;;;15.15;1.48;;;;;;;;;;4973736;28;20051;-54
2020/12/01 13:16:31;;;;;;;9.70;1.08;;;;;;;;;;4974777;28;20046;-57
2020/12/01 13:18:58;;;;;;;9.40;1.38;;;;;;;;;;4974140;28;20063;-60
2020/12/01 13:21:25;;;;;;;23.50;2.10;;;;;;;;;;5015023;28;20033;-58
2020/12/01 13:23:54;;;;;;;20.42;1.85;;;;;;;;;;5010872;28;20119;-59
2020/12/01 13:26:20;;;;;;;23.58;1.92;;;;;;;;;;4996146;28;20053;-57
2020/12/01 13:28:46;;;;;;;20.42;1.40;;;;;;;;;;4990799;28;20042;-57
2020/12/01 13:31:13;;;;;;;10.18;1.42;;;;;;;;;;5017916;28;20046;-59
2020/12/01 13:33:44;;;;;;;16.75;1.10;;;;;;;;;;5022824;28;20045;-58
2020/12/01 13:36:11;;;;;;;16.15;1.25;;;;;;;;;;5021989;28;20041;-56
2020/12/01 13:38:40;;;;;;;7.72;1.08;;;;;;;;;;5035022;28;20033;-56
2020/12/01 13:41:08;;;;;;;14.82;1.20;;;;;;;;;;5018259;28;20184;-58
2020/12/01 13:43:37;;;;;;;22.42;1.60;;;;;;;;;;4996027;28;20041;-56
2020/12/01 13:46:04;;;;;;;15.48;1.58;;;;;;;;;;5006209;28;20161;-59
2020/12/01 13:48:33;;;;;;;5.85;0.65;;;;;;;;;;4991554;28;20069;-60
2020/12/01 13:51:02;;;;;;;7.20;1.80;;;;;;;;;;5023384;28;20049;-58
2020/12/01 13:53:29;;;;;;;8.65;0.88;;;;;;;;;;5022524;28;20041;-58
2020/12/01 13:55:58;;;;;;;13.45;1.40;;;;;;;;;;5017616;28;20046;-58
2020/12/01 13:58:24;;;;;;;20.55;1.38;;;;;;;;;;4986643;28;20042;-56
2020/12/01 14:00:52;;;;;;;20.40;1.42;;;;;;;;;;5032372;28;20038;-60
2020/12/01 14:03:18;;;;;;;14.10;1.15;;;;;;;;;;5022552;28;20052;-54
2020/12/01 14:05:44;;;;;;;9.85;1.25;;;;;;;;;;4993833;28;20046;-61
2020/12/01 14:08:10;;;;;;;11.65;1.08;;;;;;;;;;4986625;28;20045;-59
2020/12/01 14:10:38;;;;;;;11.68;1.35;;;;;;;;;;4994984;28;20045;-58
2020/12/01 14:13:04;;;;;;;14.67;1.33;;;;;;;;;;5022030;28;20069;-61
2020/12/01 14:15:33;;;;;;;14.82;1.40;;;;;;;;;;5010232;28;20053;-57
2020/12/01 14:17:59;;;;;;;12.60;1.25;;;;;;;;;;4987585;28;20087;-56
2020/12/01 14:20:25;;;;;;;14.18;1.55;;;;;;;;;;4992418;28;20034;-57
2020/12/01 14:22:52;;;;;;;13.88;1.50;;;;;;;;;;5024018;28;20034;-57
2020/12/01 14:25:19;;;;;;;13.77;1.50;;;;;;;;;;5001085;28;20104;-58
2020/12/01 14:27:46;;;;;;;22.92;1.30;;;;;;;;;;5005820;28;20139;-61
2020/12/01 14:30:15;;;;;;;7.25;1.35;;;;;;;;;;5000097;28;20089;-59
2020/12/01 14:32:41;;;;;;;13.63;1.08;;;;;;;;;;4984286;28;20038;-61
2020/12/01 14:35:08;;;;;;;4.22;0.47;;;;;;;;;;4984381;28;20208;-61
2020/12/01 14:37:34;;;;;;;13.57;1.77;;;;;;;;;;4984385;28;20070;-56
2020/12/01 14:40:06;;;;;;;3.25;0.60;;;;;;;;;;4986118;28;20030;-61
2020/12/01 14:42:32;;;;;;;12.85;1.40;;;;;;;;;;5017999;28;20077;-57
2020/12/01 14:44:59;;;;;;;9.60;1.13;;;;;;;;;;5004674;28;20034;-58
2020/12/01 14:47:43;;;;;;;12.88;1.73;;;;;;;;;;4986947;28;20052;-57
2020/12/01 14:50:15;;;;;;;10.55;1.15;;;;;;;;;;5003201;28;20054;-61
2020/12/01 14:52:44;;;;;;;10.35;1.20;;;;;;;;;;4997194;28;20069;-59
2020/12/01 14:55:16;;;;;;;8.45;0.98;;;;;;;;;;5021689;28;20058;-61
2020/12/01 14:58:00;;;;;;;5.68;1.05;;;;;;;;;;5017735;28;20041;-57
2020/12/01 15:00:31;;;;;;;13.02;1.25;;;;;;;;;;5005181;28;20103;-59
2020/12/01 15:03:07;;;;;;;11.60;1.20;;;;;;;;;;5014501;28;20273;-57
2020/12/01 15:06:03;;;;;;;3.95;0.70;;;;;;;;;;5001285;28;20057;-55
2020/12/01 15:08:40;;;;;;;8.35;1.30;;;;;;;;;;4958875;28;20101;-56
2020/12/01 15:11:15;;;;;;;6.72;0.95;;;;;;;;;;4995050;28;20066;-60
2020/12/01 15:13:42;;;;;;;6.93;1.00;;;;;;;;;;4997484;28;20041;-57
2020/12/01 15:16:09;;;;;;;9.93;0.95;;;;;;;;;;5003319;28;20038;-57
2020/12/01 15:18:39;;;;;;;6.70;1.10;;;;;;;;;;4982661;28;20046;-58